sensor_id;sensor_type;location;lat;lon;timestamp;P1;durP1;ratioP1;P2;durP2;ratioP2
18136;SDS011;9194;42.632;23.298;2022-12-07T00:04:33;85.70;;;32.53;;
18136;SDS011;9194;42.632;23.298;2022-12-07T00:09:35;80.63;;;33.50;;
18136;SDS011;9194;42.632;23.298;2022-12-07T00:14:36;79.40;;;32.00;;
18136;SDS011;9194;42.632;23.298;2022-12-07T00:19:37;92.57;;;32.70;;
18136;SDS011;9194;42.632;23.298;2022-12-07T00:24:45;75.20;;;30.67;;
18136;SDS011;9194;42.632;23.298;2022-12-07T00:29:48;80.13;;;32.33;;
18136;SDS011;9194;42.632;23.298;2022-12-07T00:39:53;83.70;;;31.97;;
18136;SDS011;9194;42.632;23.298;2022-12-07T00:44:55;71.37;;;29.90;;
18136;SDS011;9194;42.632;23.298;2022-12-07T00:49:56;73.87;;;28.97;;
18136;SDS011;9194;42.632;23.298;2022-12-07T00:54:58;70.60;;;27.47;;
18136;SDS011;9194;42.632;23.298;2022-12-07T00:59:59;80.60;;;28.07;;
18136;SDS011;9194;42.632;23.298;2022-12-07T01:05:01;75.70;;;31.10;;
18136;SDS011;9194;42.632;23.298;2022-12-07T01:10:02;78.20;;;28.13;;
18136;SDS011;9194;42.632;23.298;2022-12-07T01:15:04;78.20;;;30.33;;
18136;SDS011;9194;42.632;23.298;2022-12-07T01:20:06;73.60;;;28.73;;
18136;SDS011;9194;42.632;23.298;2022-12-07T01:25:08;80.07;;;30.60;;
18136;SDS011;9194;42.632;23.298;2022-12-07T01:30:11;77.40;;;27.87;;
18136;SDS011;9194;42.632;23.298;2022-12-07T01:35:13;70.30;;;28.00;;
18136;SDS011;9194;42.632;23.298;2022-12-07T01:40:15;75.87;;;26.67;;
18136;SDS011;9194;42.632;23.298;2022-12-07T01:50:40;67.07;;;26.47;;
18136;SDS011;9194;42.632;23.298;2022-12-07T01:55:45;62.50;;;24.93;;
18136;SDS011;9194;42.632;23.298;2022-12-07T02:00:49;75.33;;;25.77;;
18136;SDS011;9194;42.632;23.298;2022-12-07T02:05:50;72.33;;;25.03;;
18136;SDS011;9194;42.632;23.298;2022-12-07T02:10:54;69.90;;;25.53;;
18136;SDS011;9194;42.632;23.298;2022-12-07T02:16:12;73.60;;;26.17;;
18136;SDS011;9194;42.632;23.298;2022-12-07T02:21:39;64.43;;;24.73;;
18136;SDS011;9194;42.632;23.298;2022-12-07T02:32:27;65.53;;;26.70;;
18136;SDS011;9194;42.632;23.298;2022-12-07T02:37:58;80.60;;;27.23;;
18136;SDS011;9194;42.632;23.298;2022-12-07T02:43:04;69.73;;;26.40;;
18136;SDS011;9194;42.632;23.298;2022-12-07T02:48:12;82.10;;;27.43;;
18136;SDS011;9194;42.632;23.298;2022-12-07T03:03:40;77.47;;;27.03;;
18136;SDS011;9194;42.632;23.298;2022-12-07T03:08:53;66.40;;;24.17;;
18136;SDS011;9194;42.632;23.298;2022-12-07T03:19:34;69.50;;;23.57;;
18136;SDS011;9194;42.632;23.298;2022-12-07T03:24:47;69.73;;;25.67;;
18136;SDS011;9194;42.632;23.298;2022-12-07T03:29:58;57.13;;;22.27;;
18136;SDS011;9194;42.632;23.298;2022-12-07T03:40:34;46.23;;;16.13;;
18136;SDS011;9194;42.632;23.298;2022-12-07T03:45:56;39.90;;;14.93;;
18136;SDS011;9194;42.632;23.298;2022-12-07T03:51:11;45.03;;;15.53;;
18136;SDS011;9194;42.632;23.298;2022-12-07T03:56:20;37.23;;;15.07;;
18136;SDS011;9194;42.632;23.298;2022-12-07T04:01:23;30.13;;;11.93;;
18136;SDS011;9194;42.632;23.298;2022-12-07T04:06:25;36.30;;;14.07;;
18136;SDS011;9194;42.632;23.298;2022-12-07T04:11:26;42.77;;;14.90;;
18136;SDS011;9194;42.632;23.298;2022-12-07T04:16:27;40.37;;;15.67;;
18136;SDS011;9194;42.632;23.298;2022-12-07T04:21:29;38.90;;;16.47;;
18136;SDS011;9194;42.632;23.298;2022-12-07T04:26:30;43.67;;;18.87;;
18136;SDS011;9194;42.632;23.298;2022-12-07T04:31:31;48.43;;;17.60;;
18136;SDS011;9194;42.632;23.298;2022-12-07T04:36:33;44.67;;;17.73;;
18136;SDS011;9194;42.632;23.298;2022-12-07T04:41:35;44.87;;;17.90;;
18136;SDS011;9194;42.632;23.298;2022-12-07T04:46:36;40.23;;;15.90;;
18136;SDS011;9194;42.632;23.298;2022-12-07T04:51:37;39.00;;;16.47;;
18136;SDS011;9194;42.632;23.298;2022-12-07T04:56:39;44.50;;;15.90;;
18136;SDS011;9194;42.632;23.298;2022-12-07T05:01:40;43.10;;;14.43;;
18136;SDS011;9194;42.632;23.298;2022-12-07T05:06:45;33.80;;;14.73;;
18136;SDS011;9194;42.632;23.298;2022-12-07T05:11:48;34.73;;;14.00;;
18136;SDS011;9194;42.632;23.298;2022-12-07T05:16:49;37.33;;;12.73;;
18136;SDS011;9194;42.632;23.298;2022-12-07T05:21:51;33.13;;;13.27;;
18136;SDS011;9194;42.632;23.298;2022-12-07T05:26:53;32.37;;;13.63;;
18136;SDS011;9194;42.632;23.298;2022-12-07T05:31:54;48.77;;;16.27;;
18136;SDS011;9194;42.632;23.298;2022-12-07T05:36:55;45.40;;;17.30;;
18136;SDS011;9194;42.632;23.298;2022-12-07T05:41:56;43.03;;;15.83;;
18136;SDS011;9194;42.632;23.298;2022-12-07T05:47:14;41.53;;;15.43;;
18136;SDS011;9194;42.632;23.298;2022-12-07T05:52:15;36.03;;;14.00;;
18136;SDS011;9194;42.632;23.298;2022-12-07T05:57:17;46.43;;;18.00;;
18136;SDS011;9194;42.632;23.298;2022-12-07T06:02:18;38.60;;;15.27;;
18136;SDS011;9194;42.632;23.298;2022-12-07T06:07:20;47.43;;;17.30;;
18136;SDS011;9194;42.632;23.298;2022-12-07T06:12:21;43.53;;;17.23;;
18136;SDS011;9194;42.632;23.298;2022-12-07T06:17:34;49.80;;;19.27;;
18136;SDS011;9194;42.632;23.298;2022-12-07T06:22:37;48.87;;;20.53;;
18136;SDS011;9194;42.632;23.298;2022-12-07T06:27:38;64.53;;;20.13;;
18136;SDS011;9194;42.632;23.298;2022-12-07T06:32:39;62.07;;;21.77;;
18136;SDS011;9194;42.632;23.298;2022-12-07T06:37:41;61.77;;;23.70;;
18136;SDS011;9194;42.632;23.298;2022-12-07T06:42:42;63.37;;;22.50;;
18136;SDS011;9194;42.632;23.298;2022-12-07T06:47:43;58.10;;;22.63;;
18136;SDS011;9194;42.632;23.298;2022-12-07T06:52:44;81.33;;;25.03;;
18136;SDS011;9194;42.632;23.298;2022-12-07T06:57:46;161.53;;;26.50;;
18136;SDS011;9194;42.632;23.298;2022-12-07T07:02:47;357.77;;;28.23;;
18136;SDS011;9194;42.632;23.298;2022-12-07T07:07:49;298.97;;;26.70;;
18136;SDS011;9194;42.632;23.298;2022-12-07T07:12:50;327.90;;;26.70;;
18136;SDS011;9194;42.632;23.298;2022-12-07T07:17:52;266.10;;;27.37;;
18136;SDS011;9194;42.632;23.298;2022-12-07T07:22:54;316.83;;;28.03;;
18136;SDS011;9194;42.632;23.298;2022-12-07T07:27:56;480.57;;;33.73;;
18136;SDS011;9194;42.632;23.298;2022-12-07T07:32:58;158.37;;;28.60;;
18136;SDS011;9194;42.632;23.298;2022-12-07T07:38:00;227.20;;;30.73;;
18136;SDS011;9194;42.632;23.298;2022-12-07T07:43:02;268.23;;;34.20;;
18136;SDS011;9194;42.632;23.298;2022-12-07T07:48:03;177.00;;;32.47;;
18136;SDS011;9194;42.632;23.298;2022-12-07T07:53:05;86.47;;;26.50;;
18136;SDS011;9194;42.632;23.298;2022-12-07T07:58:06;79.00;;;25.90;;
18136;SDS011;9194;42.632;23.298;2022-12-07T08:03:07;65.50;;;24.57;;
18136;SDS011;9194;42.632;23.298;2022-12-07T08:08:09;95.10;;;27.97;;
18136;SDS011;9194;42.632;23.298;2022-12-07T08:13:10;113.30;;;28.93;;
18136;SDS011;9194;42.632;23.298;2022-12-07T08:18:12;100.70;;;29.53;;
18136;SDS011;9194;42.632;23.298;2022-12-07T08:23:14;103.33;;;28.93;;
18136;SDS011;9194;42.632;23.298;2022-12-07T08:28:16;234.87;;;32.10;;
18136;SDS011;9194;42.632;23.298;2022-12-07T08:33:17;235.60;;;31.43;;
18136;SDS011;9194;42.632;23.298;2022-12-07T08:38:18;100.20;;;28.63;;
18136;SDS011;9194;42.632;23.298;2022-12-07T08:43:20;123.43;;;30.77;;
18136;SDS011;9194;42.632;23.298;2022-12-07T08:48:21;78.43;;;28.67;;
18136;SDS011;9194;42.632;23.298;2022-12-07T08:53:25;106.10;;;30.63;;
18136;SDS011;9194;42.632;23.298;2022-12-07T08:58:26;83.20;;;28.47;;
18136;SDS011;9194;42.632;23.298;2022-12-07T09:03:27;86.13;;;28.37;;
18136;SDS011;9194;42.632;23.298;2022-12-07T09:08:33;69.27;;;26.63;;
18136;SDS011;9194;42.632;23.298;2022-12-07T09:13:37;83.47;;;29.20;;
18136;SDS011;9194;42.632;23.298;2022-12-07T09:18:38;86.50;;;31.03;;
18136;SDS011;9194;42.632;23.298;2022-12-07T09:23:41;101.27;;;38.87;;
18136;SDS011;9194;42.632;23.298;2022-12-07T09:28:43;105.83;;;40.13;;
18136;SDS011;9194;42.632;23.298;2022-12-07T09:33:44;105.90;;;40.07;;
18136;SDS011;9194;42.632;23.298;2022-12-07T09:38:46;91.57;;;38.27;;
18136;SDS011;9194;42.632;23.298;2022-12-07T09:43:47;103.37;;;44.47;;
18136;SDS011;9194;42.632;23.298;2022-12-07T09:48:49;100.17;;;41.27;;
18136;SDS011;9194;42.632;23.298;2022-12-07T09:53:52;81.00;;;35.27;;
18136;SDS011;9194;42.632;23.298;2022-12-07T09:58:58;70.17;;;28.47;;
18136;SDS011;9194;42.632;23.298;2022-12-07T10:04:37;74.70;;;32.20;;
18136;SDS011;9194;42.632;23.298;2022-12-07T10:09:31;76.27;;;31.30;;
18136;SDS011;9194;42.632;23.298;2022-12-07T10:14:37;86.20;;;33.97;;
18136;SDS011;9194;42.632;23.298;2022-12-07T10:19:40;53.83;;;24.67;;
18136;SDS011;9194;42.632;23.298;2022-12-07T10:24:42;40.10;;;11.70;;
18136;SDS011;9194;42.632;23.298;2022-12-07T10:29:48;22.43;;;8.87;;
18136;SDS011;9194;42.632;23.298;2022-12-07T10:34:51;24.53;;;7.90;;
18136;SDS011;9194;42.632;23.298;2022-12-07T10:45:25;30.23;;;12.90;;
18136;SDS011;9194;42.632;23.298;2022-12-07T11:01:48;18.33;;;8.37;;
18136;SDS011;9194;42.632;23.298;2022-12-07T11:07:01;19.17;;;9.60;;
18136;SDS011;9194;42.632;23.298;2022-12-07T11:12:30;31.43;;;12.80;;
18136;SDS011;9194;42.632;23.298;2022-12-07T11:18:00;37.70;;;12.40;;
18136;SDS011;9194;42.632;23.298;2022-12-07T11:23:21;22.23;;;10.53;;
18136;SDS011;9194;42.632;23.298;2022-12-07T11:39:52;24.20;;;7.77;;
18136;SDS011;9194;42.632;23.298;2022-12-07T11:44:39;19.70;;;7.83;;
18136;SDS011;9194;42.632;23.298;2022-12-07T12:00:55;17.37;;;8.27;;
18136;SDS011;9194;42.632;23.298;2022-12-07T12:06:23;28.87;;;11.63;;
18136;SDS011;9194;42.632;23.298;2022-12-07T12:22:37;25.13;;;11.07;;
18136;SDS011;9194;42.632;23.298;2022-12-07T12:27:42;39.83;;;11.70;;
18136;SDS011;9194;42.632;23.298;2022-12-07T12:32:47;34.33;;;11.20;;
18136;SDS011;9194;42.632;23.298;2022-12-07T12:37:50;28.80;;;10.97;;
18136;SDS011;9194;42.632;23.298;2022-12-07T12:42:54;23.80;;;11.77;;
18136;SDS011;9194;42.632;23.298;2022-12-07T12:48:35;26.57;;;11.07;;
18136;SDS011;9194;42.632;23.298;2022-12-07T12:53:27;31.43;;;11.50;;
18136;SDS011;9194;42.632;23.298;2022-12-07T12:58:31;29.80;;;11.47;;
18136;SDS011;9194;42.632;23.298;2022-12-07T13:03:35;22.37;;;10.50;;
18136;SDS011;9194;42.632;23.298;2022-12-07T13:08:37;23.23;;;10.57;;
18136;SDS011;9194;42.632;23.298;2022-12-07T13:13:42;18.60;;;9.93;;
18136;SDS011;9194;42.632;23.298;2022-12-07T13:18:43;26.17;;;10.83;;
18136;SDS011;9194;42.632;23.298;2022-12-07T13:29:20;33.57;;;12.37;;
18136;SDS011;9194;42.632;23.298;2022-12-07T13:34:32;33.80;;;12.67;;
18136;SDS011;9194;42.632;23.298;2022-12-07T13:39:48;33.20;;;13.40;;
18136;SDS011;9194;42.632;23.298;2022-12-07T13:44:52;38.90;;;13.67;;
18136;SDS011;9194;42.632;23.298;2022-12-07T13:49:54;48.17;;;13.53;;
18136;SDS011;9194;42.632;23.298;2022-12-07T13:59:59;35.10;;;12.33;;
18136;SDS011;9194;42.632;23.298;2022-12-07T14:10:31;36.63;;;12.57;;
18136;SDS011;9194;42.632;23.298;2022-12-07T14:15:40;34.07;;;13.10;;
18136;SDS011;9194;42.632;23.298;2022-12-07T14:20:44;25.17;;;12.13;;
18136;SDS011;9194;42.632;23.298;2022-12-07T14:25:46;30.80;;;11.63;;
18136;SDS011;9194;42.632;23.298;2022-12-07T14:30:49;21.33;;;10.00;;
18136;SDS011;9194;42.632;23.298;2022-12-07T14:35:50;29.33;;;10.47;;
18136;SDS011;9194;42.632;23.298;2022-12-07T14:40:56;25.70;;;8.63;;
18136;SDS011;9194;42.632;23.298;2022-12-07T14:46:20;19.60;;;7.80;;
18136;SDS011;9194;42.632;23.298;2022-12-07T14:51:21;18.43;;;7.70;;
18136;SDS011;9194;42.632;23.298;2022-12-07T14:56:23;22.30;;;6.63;;
18136;SDS011;9194;42.632;23.298;2022-12-07T15:01:25;19.07;;;6.60;;
18136;SDS011;9194;42.632;23.298;2022-12-07T15:06:26;17.47;;;6.27;;
18136;SDS011;9194;42.632;23.298;2022-12-07T15:11:28;18.00;;;6.63;;
18136;SDS011;9194;42.632;23.298;2022-12-07T15:16:29;12.63;;;6.80;;
18136;SDS011;9194;42.632;23.298;2022-12-07T15:21:30;13.87;;;6.83;;
18136;SDS011;9194;42.632;23.298;2022-12-07T15:26:32;13.67;;;6.83;;
18136;SDS011;9194;42.632;23.298;2022-12-07T15:31:33;13.83;;;6.73;;
18136;SDS011;9194;42.632;23.298;2022-12-07T15:36:35;13.23;;;6.53;;
18136;SDS011;9194;42.632;23.298;2022-12-07T15:41:37;12.73;;;7.63;;
18136;SDS011;9194;42.632;23.298;2022-12-07T15:46:39;14.93;;;7.57;;
18136;SDS011;9194;42.632;23.298;2022-12-07T15:51:42;18.60;;;7.70;;
18136;SDS011;9194;42.632;23.298;2022-12-07T15:56:44;17.50;;;7.77;;
18136;SDS011;9194;42.632;23.298;2022-12-07T16:01:45;14.77;;;7.30;;
18136;SDS011;9194;42.632;23.298;2022-12-07T16:06:47;19.77;;;8.77;;
18136;SDS011;9194;42.632;23.298;2022-12-07T16:11:48;15.73;;;7.97;;
18136;SDS011;9194;42.632;23.298;2022-12-07T16:16:51;20.73;;;8.10;;
18136;SDS011;9194;42.632;23.298;2022-12-07T16:21:52;22.17;;;7.97;;
18136;SDS011;9194;42.632;23.298;2022-12-07T16:26:54;13.80;;;7.23;;
18136;SDS011;9194;42.632;23.298;2022-12-07T16:31:55;16.10;;;8.10;;
18136;SDS011;9194;42.632;23.298;2022-12-07T16:36:56;16.60;;;8.23;;
18136;SDS011;9194;42.632;23.298;2022-12-07T16:41:58;23.77;;;7.83;;
18136;SDS011;9194;42.632;23.298;2022-12-07T16:46:59;21.60;;;9.33;;
18136;SDS011;9194;42.632;23.298;2022-12-07T16:52:01;24.53;;;8.87;;
18136;SDS011;9194;42.632;23.298;2022-12-07T16:57:03;21.33;;;9.43;;
18136;SDS011;9194;42.632;23.298;2022-12-07T17:02:04;22.47;;;9.23;;
18136;SDS011;9194;42.632;23.298;2022-12-07T17:07:07;23.70;;;9.50;;
18136;SDS011;9194;42.632;23.298;2022-12-07T17:12:09;23.17;;;9.17;;
18136;SDS011;9194;42.632;23.298;2022-12-07T17:17:10;20.83;;;8.27;;
18136;SDS011;9194;42.632;23.298;2022-12-07T17:22:11;20.77;;;9.37;;
18136;SDS011;9194;42.632;23.298;2022-12-07T17:27:13;19.93;;;8.57;;
18136;SDS011;9194;42.632;23.298;2022-12-07T17:32:14;23.77;;;9.33;;
18136;SDS011;9194;42.632;23.298;2022-12-07T17:37:16;22.40;;;9.73;;
18136;SDS011;9194;42.632;23.298;2022-12-07T17:42:17;28.73;;;9.83;;
18136;SDS011;9194;42.632;23.298;2022-12-07T17:47:38;25.87;;;10.07;;
18136;SDS011;9194;42.632;23.298;2022-12-07T17:52:39;57.87;;;29.60;;
18136;SDS011;9194;42.632;23.298;2022-12-07T17:57:59;27.10;;;12.10;;
18136;SDS011;9194;42.632;23.298;2022-12-07T18:03:00;29.30;;;11.07;;
18136;SDS011;9194;42.632;23.298;2022-12-07T18:08:02;29.10;;;10.77;;
18136;SDS011;9194;42.632;23.298;2022-12-07T18:13:03;21.10;;;9.37;;
18136;SDS011;9194;42.632;23.298;2022-12-07T18:18:23;22.23;;;11.07;;
18136;SDS011;9194;42.632;23.298;2022-12-07T18:23:24;25.33;;;9.77;;
18136;SDS011;9194;42.632;23.298;2022-12-07T18:28:26;22.53;;;9.07;;
18136;SDS011;9194;42.632;23.298;2022-12-07T18:33:28;22.23;;;10.10;;
18136;SDS011;9194;42.632;23.298;2022-12-07T18:38:29;20.20;;;9.07;;
18136;SDS011;9194;42.632;23.298;2022-12-07T18:43:31;63.37;;;21.40;;
18136;SDS011;9194;42.632;23.298;2022-12-07T18:48:32;55.27;;;19.37;;
18136;SDS011;9194;42.632;23.298;2022-12-07T18:53:34;38.93;;;14.63;;
18136;SDS011;9194;42.632;23.298;2022-12-07T18:58:36;31.13;;;12.77;;
18136;SDS011;9194;42.632;23.298;2022-12-07T19:03:38;31.10;;;10.03;;
18136;SDS011;9194;42.632;23.298;2022-12-07T19:08:39;25.80;;;10.07;;
18136;SDS011;9194;42.632;23.298;2022-12-07T19:13:40;34.97;;;10.20;;
18136;SDS011;9194;42.632;23.298;2022-12-07T19:18:42;27.27;;;9.90;;
18136;SDS011;9194;42.632;23.298;2022-12-07T19:23:43;26.37;;;9.00;;
18136;SDS011;9194;42.632;23.298;2022-12-07T19:28:44;17.60;;;8.63;;
18136;SDS011;9194;42.632;23.298;2022-12-07T19:33:46;20.27;;;8.87;;
18136;SDS011;9194;42.632;23.298;2022-12-07T19:38:48;29.60;;;10.63;;
18136;SDS011;9194;42.632;23.298;2022-12-07T19:43:51;26.97;;;10.50;;
18136;SDS011;9194;42.632;23.298;2022-12-07T19:48:52;23.73;;;8.80;;
18136;SDS011;9194;42.632;23.298;2022-12-07T19:53:54;23.07;;;9.63;;
18136;SDS011;9194;42.632;23.298;2022-12-07T19:59:00;22.33;;;8.57;;
18136;SDS011;9194;42.632;23.298;2022-12-07T20:04:03;22.47;;;9.17;;
18136;SDS011;9194;42.632;23.298;2022-12-07T20:09:06;28.40;;;10.73;;
18136;SDS011;9194;42.632;23.298;2022-12-07T20:14:09;22.30;;;9.33;;
18136;SDS011;9194;42.632;23.298;2022-12-07T20:19:14;26.90;;;10.50;;
18136;SDS011;9194;42.632;23.298;2022-12-07T20:24:17;23.47;;;9.30;;
18136;SDS011;9194;42.632;23.298;2022-12-07T20:29:22;26.40;;;9.87;;
18136;SDS011;9194;42.632;23.298;2022-12-07T20:34:24;31.10;;;11.13;;
18136;SDS011;9194;42.632;23.298;2022-12-07T20:39:26;29.47;;;11.10;;
18136;SDS011;9194;42.632;23.298;2022-12-07T20:44:27;32.60;;;12.10;;
18136;SDS011;9194;42.632;23.298;2022-12-07T20:49:29;37.60;;;12.47;;
18136;SDS011;9194;42.632;23.298;2022-12-07T20:54:32;46.30;;;16.00;;
18136;SDS011;9194;42.632;23.298;2022-12-07T20:59:33;42.33;;;15.00;;
18136;SDS011;9194;42.632;23.298;2022-12-07T21:04:35;44.27;;;13.73;;
18136;SDS011;9194;42.632;23.298;2022-12-07T21:09:36;38.03;;;14.67;;
18136;SDS011;9194;42.632;23.298;2022-12-07T21:14:38;29.03;;;12.27;;
18136;SDS011;9194;42.632;23.298;2022-12-07T21:19:41;26.80;;;10.50;;
18136;SDS011;9194;42.632;23.298;2022-12-07T21:24:42;31.83;;;10.97;;
18136;SDS011;9194;42.632;23.298;2022-12-07T21:29:44;36.83;;;13.17;;
18136;SDS011;9194;42.632;23.298;2022-12-07T21:34:46;28.83;;;10.67;;
18136;SDS011;9194;42.632;23.298;2022-12-07T21:39:49;31.63;;;11.60;;
18136;SDS011;9194;42.632;23.298;2022-12-07T21:44:50;34.00;;;12.03;;
18136;SDS011;9194;42.632;23.298;2022-12-07T21:49:51;37.93;;;12.10;;
18136;SDS011;9194;42.632;23.298;2022-12-07T21:54:52;28.73;;;12.10;;
18136;SDS011;9194;42.632;23.298;2022-12-07T21:59:54;21.33;;;10.50;;
18136;SDS011;9194;42.632;23.298;2022-12-07T22:04:55;32.83;;;12.30;;
18136;SDS011;9194;42.632;23.298;2022-12-07T22:09:56;30.17;;;12.73;;
18136;SDS011;9194;42.632;23.298;2022-12-07T22:14:58;38.63;;;14.10;;
18136;SDS011;9194;42.632;23.298;2022-12-07T22:20:06;42.10;;;12.70;;
18136;SDS011;9194;42.632;23.298;2022-12-07T22:25:08;39.60;;;14.83;;
18136;SDS011;9194;42.632;23.298;2022-12-07T22:30:10;36.23;;;14.17;;
18136;SDS011;9194;42.632;23.298;2022-12-07T22:35:12;47.57;;;15.60;;
18136;SDS011;9194;42.632;23.298;2022-12-07T22:40:13;60.77;;;22.03;;
18136;SDS011;9194;42.632;23.298;2022-12-07T22:45:15;61.17;;;21.77;;
18136;SDS011;9194;42.632;23.298;2022-12-07T22:50:18;45.90;;;17.60;;
18136;SDS011;9194;42.632;23.298;2022-12-07T22:55:19;37.07;;;13.03;;
18136;SDS011;9194;42.632;23.298;2022-12-07T23:00:20;50.80;;;20.10;;
18136;SDS011;9194;42.632;23.298;2022-12-07T23:05:22;48.07;;;18.03;;
18136;SDS011;9194;42.632;23.298;2022-12-07T23:10:24;54.80;;;20.17;;
18136;SDS011;9194;42.632;23.298;2022-12-07T23:15:26;47.27;;;19.17;;
18136;SDS011;9194;42.632;23.298;2022-12-07T23:20:27;53.80;;;21.80;;
18136;SDS011;9194;42.632;23.298;2022-12-07T23:25:28;47.83;;;18.80;;
18136;SDS011;9194;42.632;23.298;2022-12-07T23:30:30;39.27;;;15.70;;
18136;SDS011;9194;42.632;23.298;2022-12-07T23:35:31;34.53;;;13.50;;
18136;SDS011;9194;42.632;23.298;2022-12-07T23:40:32;36.73;;;12.00;;
18136;SDS011;9194;42.632;23.298;2022-12-07T23:45:34;34.77;;;13.33;;
18136;SDS011;9194;42.632;23.298;2022-12-07T23:50:35;38.37;;;15.10;;
18136;SDS011;9194;42.632;23.298;2022-12-07T23:55:36;52.17;;;19.80;;
